Latest Weather Observations for Mandurah

IDW60901

Issued at 5:51 pm WST Sunday 14 February 2016 (issued every 10 minutes, with the page automatically refreshed every 10 minutes)

About weather observations | Map of Perth area stations | Latest observations for Perth area | Other Formats
Station Details ID: 009977 Name: MANDURAH Lat: -32.52 Lon: 115.71 Height: 3.0 m
Data from the previous 72 hours. | See also: Recent months at Mandurah
Date/Time
WST
Tmp

°C
App
Tmp
°C
Dew
Point
°C
Rel
Hum
%
Delta-T

°C
Wind Press
QNH
hPa
Press
MSL
hPa
Rain
since
9 am
mm
Dir
 
Spd
km/h
Gust
km/h
Spd
kts
Gust
kts
14/05:30pm 27.5 26.6 13.8 43 8.1 S 11 24 6 13 1017.8 1017.8 0.0
14/05:00pm 28.1 25.4 12.8 38 9.0 SSW 19 33 10 18 1017.7 1017.7 0.0
14/04:30pm 29.3 27.4 11.8 34 10.1 S 13 20 7 11 1017.7 1017.7 0.0
14/04:00pm 30.9 26.6 5.3 20 13.4 SSE 17 30 9 16 1017.8 1017.8 0.0
14/03:30pm 31.2 27.2 4.9 19 13.7 ESE 15 24 8 13 1018.1 1018.1 0.0
14/03:00pm 30.9 26.2 5.3 20 13.4 SE 19 35 10 19 1018.3 1018.3 0.0
14/02:30pm 29.6 25.2 5.0 21 12.8 SSE 17 32 9 17 1018.6 1018.6 0.0
14/02:00pm 29.7 26.0 6.4 23 12.4 SE 15 30 8 16 1019.1 1019.1 0.0
14/01:30pm 28.8 25.1 6.2 24 11.9 SSE 15 24 8 13 1019.6 1019.6 0.0
14/01:00pm 28.7 24.7 6.7 25 11.7 SE 17 32 9 17 1019.8 1019.8 0.0
14/12:30pm 28.4 25.0 7.6 27 11.2 SE 15 24 8 13 1020.2 1020.2 0.0
14/12:00pm 26.0 22.7 8.0 32 9.6 SE 15 30 8 16 1020.7 1020.7 0.0
14/11:30am 26.6 24.0 7.6 30 10.1 ESE 11 28 6 15 1021.3 1021.3 0.0
14/11:00am 25.4 22.6 8.4 34 9.1 ESE 13 20 7 11 1021.6 1021.6 0.0
14/10:30am 24.8 21.3 8.7 36 8.7 SE 17 26 9 14 1021.9 1021.9 0.0
14/10:00am 23.3 19.8 8.6 39 7.8 SE 17 26 9 14 1022.2 1022.2 0.0
14/09:30am 22.2 18.4 9.0 43 7.0 ESE 19 32 10 17 1022.3 1022.3 0.0
14/09:00am 21.4 17.5 8.7 44 6.7 E 19 30 10 16 1022.4 1022.4 0.0
14/08:30am 20.3 16.8 8.9 48 6.0 ESE 17 30 9 16 1022.6 1022.6 0.0
14/08:00am 19.4 15.5 9.3 52 5.3 SE 20 28 11 15 1023.0 1023.0 0.0
14/07:30am 18.6 14.7 8.8 53 5.1 SE 19 32 10 17 1023.3 1023.3 0.0
14/07:00am 17.7 14.7 9.1 57 4.5 SE 15 20 8 11 1023.2 1023.2 0.0
14/06:30am 17.2 15.3 8.9 58 4.3 SE 9 15 5 8 1022.9 1022.9 0.0
14/06:00am 17.1 14.0 8.8 58 4.3 SE 15 20 8 11 1022.4 1022.4 0.0
14/05:30am 17.0 13.9 8.7 58 4.3 SE 15 20 8 11 1022.0 1022.0 0.0
14/05:00am 17.1 14.8 9.0 59 4.2 ESE 11 20 6 11 1021.7 1021.7 0.0
14/04:30am 17.3 13.9 9.0 58 4.3 SE 17 30 9 16 1021.4 1021.4 0.0
14/04:00am 17.4 13.8 8.5 56 4.5 ESE 17 26 9 14 1021.2 1021.2 0.0
14/03:30am 17.6 13.7 8.7 56 4.6 ESE 19 28 10 15 1020.9 1020.9 0.0
14/03:00am 17.9 13.8 8.7 55 4.7 ESE 20 32 11 17 1020.7 1020.7 0.0
14/02:30am 18.3 14.3 9.1 55 4.8 ESE 20 32 11 17 1020.5 1020.5 0.0
14/02:00am 18.7 14.7 9.2 54 5.0 ESE 20 33 11 18 1020.5 1020.5 0.0
14/01:30am 19.2 15.3 9.4 53 5.2 ESE 20 37 11 20 1020.6 1020.6 0.0
14/01:00am 19.7 15.7 9.0 50 5.6 ESE 20 32 11 17 1020.6 1020.6 0.0
14/12:30am 20.6 16.6 8.9 47 6.2 SE 20 33 11 18 1020.6 1020.6 0.0
14/12:00am 21.3 17.2 8.6 44 6.7 SE 20 30 11 16 1020.6 1020.6 0.0
 
Date/Time
WST
Tmp

°C
App
Tmp
°C
Dew
Point
°C
Rel
Hum
%
Delta-T

°C
Wind Press
QNH
hPa
Press
MSL
hPa
Rain
since
9 am
mm
Dir
 
Spd
km/h
Gust
km/h
Spd
kts
Gust
kts
13/11:30pm 21.9 16.7 8.8 43 6.9 SE 26 37 14 20 1020.5 1020.5 0.0
13/11:00pm 22.6 18.2 9.0 42 7.2 SE 22 37 12 20 1020.5 1020.5 0.0
13/10:30pm 23.3 19.8 8.6 39 7.8 SE 17 24 9 13 1020.4 1020.4 0.0
13/10:00pm 24.0 20.0 8.4 37 8.3 SE 19 26 10 14 1020.5 1020.5 0.0
13/09:30pm 24.5 20.4 8.0 35 8.8 SE 19 26 10 14 1020.4 1020.4 0.0
13/09:00pm 25.2 21.5 7.8 33 9.2 SE 17 26 9 14 1020.2 1020.2 0.0
13/08:30pm 25.8 22.0 7.4 31 9.7 SE 17 26 9 14 1019.8 1019.8 0.0
13/08:00pm 26.4 22.7 6.4 28 10.4 SE 15 22 8 12 1019.5 1019.5 0.0
13/07:30pm 26.8 23.3 7.3 29 10.4 SE 15 22 8 12 1019.0 1019.0 0.0
13/07:00pm 27.3 23.8 7.2 28 10.7 SE 15 26 8 14 1018.3 1018.3 0.0
13/06:30pm 25.5 23.9 14.0 49 6.8 SSW 15 22 8 12 1018.1 1018.1 0.0
13/06:00pm 25.7 23.3 13.9 48 7.0 SSW 19 28 10 15 1018.0 1018.0 0.0
13/05:30pm 25.6 22.5 13.5 47 7.1 SSW 22 33 12 18 1018.0 1018.0 0.0
13/05:00pm 25.7 22.8 12.9 45 7.4 SSW 20 35 11 19 1018.0 1018.0 0.0
13/04:30pm 25.4 21.7 12.6 45 7.4 SSW 24 39 13 21 1018.1 1018.1 0.0
13/04:00pm 26.3 22.6 12.7 43 7.9 SSW 24 37 13 20 1018.2 1018.2 0.0
13/03:30pm 26.1 21.8 12.2 42 8.0 SW 26 39 14 21 1018.4 1018.4 0.0
13/03:00pm 27.4 23.9 11.0 36 9.3 SSW 20 30 11 16 1018.5 1018.5 0.0
13/02:30pm 28.8 25.8 6.2 24 11.9 SSE 11 20 6 11 1018.9 1018.9 0.0
13/02:00pm 28.6 25.0 6.7 25 11.6 SE 15 28 8 15 1019.2 1019.2 0.0
13/01:30pm 27.5 23.7 7.4 28 10.7 SSE 17 26 9 14 1019.6 1019.6 0.0
13/01:00pm 26.6 23.8 7.1 29 10.3 SSE 11 24 6 13 1020.1 1020.1 0.0
13/12:30pm 26.2 22.4 7.7 31 9.9 SSE 17 24 9 13 1020.6 1020.6 0.0
13/12:00pm 25.0 21.8 8.5 35 8.8 SSE 15 20 8 11 1021.0 1021.0 0.0
13/11:30am 24.6 21.2 9.0 37 8.4 SSE 17 30 9 16 1021.4 1021.4 0.0
13/11:00am 23.7 20.0 9.3 40 7.8 SSE 19 32 10 17 1021.7 1021.7 0.0
13/10:30am 23.0 19.8 10.1 44 7.0 SE 17 32 9 17 1022.1 1022.1 0.0
13/10:00am 22.2 18.5 9.4 44 6.8 SE 19 32 10 17 1022.2 1022.2 0.0
13/09:30am 21.7 18.2 10.2 48 6.3 SE 19 28 10 15 1022.3 1022.3 0.0
13/09:00am 21.6 18.6 10.7 50 6.0 SE 17 32 9 17 1022.4 1022.4 0.0
13/08:30am 19.8 16.7 11.6 59 4.5 SSE 19 28 10 15 1022.4 1022.4 0.0
13/08:00am 19.1 15.9 11.9 63 4.0 SSE 20 32 11 17 1022.5 1022.5 0.0
13/07:30am 18.5 15.3 11.8 65 3.7 SSE 20 33 11 18 1022.4 1022.4 0.0
13/07:00am 18.4 14.8 11.9 66 3.6 SSE 22 33 12 18 1022.2 1022.2 0.0
13/06:30am 18.1 14.6 12.1 68 3.3 SSE 22 33 12 18 1021.8 1021.8 0.0
13/06:00am 18.3 15.4 13.0 71 3.0 SSE 20 30 11 16 1021.2 1021.2 0.0
13/05:30am 18.3 15.8 13.6 74 2.7 SSE 19 28 10 15 1020.8 1020.8 0.0
13/05:00am 18.3 15.6 13.6 74 2.7 SSE 20 32 11 17 1020.5 1020.5 0.0
13/04:30am 18.6 15.6 13.7 73 2.8 SSE 22 35 12 19 1020.2 1020.2 0.0
13/04:00am 18.6 15.3 14.1 75 2.6 S 24 35 13 19 1019.7 1019.7 0.0
13/03:30am 18.7 15.4 14.0 74 2.7 S 24 39 13 21 1019.5 1019.5 0.0
13/03:00am 19.1 15.8 14.1 73 2.9 S 24 39 13 21 1019.3 1019.3 0.0
13/02:30am 19.3 16.6 14.6 74 2.7 S 22 30 12 16 1019.1 1019.1 0.0
13/02:00am 19.5 16.5 14.7 74 2.8 S 24 37 13 20 1019.0 1019.0 0.0
13/01:30am 19.8 16.9 15.0 74 2.8 S 24 35 13 19 1018.9 1018.9 0.0
13/01:00am 20.0 17.1 15.0 73 2.9 S 24 35 13 19 1018.8 1018.8 0.0
13/12:30am 20.5 17.7 15.3 72 3.1 S 24 37 13 20 1018.8 1018.8 0.0
13/12:00am 20.9 17.5 15.7 72 3.1 S 28 41 15 22 1018.7 1018.7 0.0
 
Date/Time
WST
Tmp

°C
App
Tmp
°C
Dew
Point
°C
Rel
Hum
%
Delta-T

°C
Wind Press
QNH
hPa
Press
MSL
hPa
Rain
since
9 am
mm
Dir
 
Spd
km/h
Gust
km/h
Spd
kts
Gust
kts
12/11:30pm 21.2 17.7 15.5 70 3.4 S 28 39 15 21 1018.4 1018.4 0.0
12/11:00pm 21.7 18.3 15.8 69 3.5 S 28 43 15 23 1018.2 1018.2 0.0
12/10:30pm 22.0 18.8 16.3 70 3.4 S 28 43 15 23 1018.3 1018.3 0.0
12/10:00pm 22.3 19.4 16.1 68 3.7 S 26 39 14 21 1018.3 1018.3 0.0
12/09:30pm 22.8 19.3 16.4 67 3.9 S 30 44 16 24 1018.0 1018.0 0.0
12/09:00pm 23.4 20.6 17.2 68 3.8 S 28 43 15 23 1017.7 1017.7 0.0
12/08:46pm 23.6 20.8 17.3 67 3.9 S 28 50 15 27 1017.4 1017.4 0.0
12/08:30pm 23.9 21.6 17.6 68 3.9 S 26 44 14 24 1017.2 1017.2 0.0
12/08:00pm 23.6 21.5 18.0 71 3.5 SSW 26 43 14 23 1017.0 1017.0 0.0
12/07:30pm 23.4 22.1 18.1 72 3.3 SSW 22 35 12 19 1016.8 1016.8 0.0
12/07:00pm 23.5 21.8 18.2 72 3.3 SSW 24 39 13 21 1016.6 1016.6 0.0
12/06:30pm 23.9 22.0 17.6 68 3.9 SSW 24 37 13 20 1016.5 1016.5 0.0
12/06:00pm 24.6 23.2 17.1 63 4.6 SSW 20 30 11 16 1016.4 1016.4 0.0
12/05:30pm 25.3 23.5 17.0 60 5.1 SSW 22 39 12 21 1016.1 1016.1 0.0
12/05:00pm 25.4 22.7 16.5 58 5.5 SSW 26 41 14 22 1016.1 1016.1 0.0
12/04:30pm 25.2 22.1 16.6 59 5.3 SW 28 41 15 22 1016.1 1016.1 0.0
12/04:00pm 25.6 23.1 16.2 56 5.8 SSW 24 35 13 19 1016.1 1016.1 0.0
12/03:30pm 25.5 22.6 16.1 56 5.7 SW 26 37 14 20 1016.2 1016.2 0.0
12/03:00pm 26.5 23.9 15.8 51 6.5 SSW 24 39 13 21 1016.3 1016.3 0.0
12/02:30pm 25.9 23.1 15.3 52 6.4 SSW 24 37 13 20 1016.4 1016.4 0.0
12/02:00pm 26.0 24.1 15.7 53 6.3 SSW 20 30 11 16 1016.5 1016.5 0.0
12/01:30pm 26.0 24.0 15.4 52 6.4 SSW 20 32 11 17 1016.8 1016.8 0.0
12/01:00pm 25.4 23.0 15.4 54 6.0 SSW 22 32 12 17 1017.2 1017.2 0.0
12/12:30pm 25.1 22.7 15.4 55 5.9 SSW 22 35 12 19 1017.4 1017.4 0.0
12/12:00pm 25.0 21.8 15.3 55 5.8 SSW 26 35 14 19 1017.5 1017.5 0.0
12/11:30am 25.3 23.0 15.6 55 5.9 SSW 22 32 12 17 1017.6 1017.6 0.0
12/11:00am 25.3 23.5 15.9 56 5.7 SW 20 30 11 16 1017.6 1017.6 0.0
12/10:30am 25.7 24.8 14.8 51 6.5 SSW 13 19 7 10 1017.8 1017.8 0.0
12/10:00am 24.6 24.2 15.2 55 5.6 S 11 19 6 10 1017.8 1017.8 0.0
12/09:30am 23.9 23.5 16.2 62 4.7 S 13 20 7 11 1017.9 1017.9 0.0
12/09:00am 23.2 22.5 16.5 66 4.1 S 15 22 8 12 1017.8 1017.8 0.0
12/08:30am 22.4 22.3 16.9 71 3.4 SSE 13 20 7 11 1017.7 1017.7 0.0
12/08:00am 21.5 21.1 17.1 76 2.7 SSE 15 22 8 12 1017.6 1017.6 0.0
12/07:30am 20.8 19.9 16.8 78 2.4 SSE 17 24 9 13 1017.5 1017.5 0.0
12/07:00am 20.4 19.6 17.0 81 2.1 SSE 17 24 9 13 1017.4 1017.4 0.0
12/06:30am 20.4 19.7 17.4 83 1.8 S 17 24 9 13 1017.0 1017.0 0.0
12/06:00am 20.6 20.8 17.6 83 1.8 S 13 22 7 12 1016.7 1016.7 0.0
12/05:30am 20.8 21.4 17.8 83 1.9 S 11 19 6 10 1016.2 1016.2 0.0
12/05:00am 20.8 21.2 18.2 85 1.6 SSE 13 19 7 10 1015.9 1015.9 0.0
12/04:30am 20.9 21.7 18.1 84 1.7 SSE 11 17 6 9 1015.5 1015.5 0.0
12/04:00am 21.0 21.4 18.2 84 1.7 S 13 20 7 11 1015.0 1015.0 0.0
12/03:30am 21.0 20.6 18.0 83 1.9 S 17 26 9 14 1014.5 1014.5 0.0
12/03:00am 21.2 21.7 18.4 84 1.7 S 13 24 7 13 1014.3 1014.3 0.0
12/02:30am 21.5 21.7 18.5 83 1.9 S 15 24 8 13 1014.2 1014.2 0.0
12/02:00am 21.7 21.5 18.5 82 2.0 S 17 24 9 13 1014.1 1014.1 0.0
12/01:30am 21.9 21.8 18.7 82 2.0 S 17 30 9 16 1014.0 1014.0 0.0
12/01:00am 22.3 22.0 19.1 82 2.0 SSE 19 28 10 15 1014.0 1014.0 0.0
12/12:30am 22.5 22.8 19.5 83 1.9 S 17 26 9 14 1014.0 1014.0 0.0
12/12:00am 22.7 23.4 19.7 83 1.9 S 15 28 8 15 1013.8 1013.8 0.0
 
Date/Time
WST
Tmp

°C
App
Tmp
°C
Dew
Point
°C
Rel
Hum
%
Delta-T

°C
Wind Press
QNH
hPa
Press
MSL
hPa
Rain
since
9 am
mm
Dir
 
Spd
km/h
Gust
km/h
Spd
kts
Gust
kts
11/11:30pm 22.6 22.6 19.8 84 1.8 SSW 19 28 10 15 1013.6 1013.6 0.0
11/11:00pm 22.9 21.5 19.7 82 2.1 SSW 26 41 14 22 1013.1 1013.1 0.0
11/10:30pm 23.4 23.9 20.0 81 2.2 SSW 17 30 9 16 1014.1 1014.1 0.0
11/10:00pm 23.4 24.6 20.7 85 1.8 SSW 15 24 8 13 1014.3 1014.3 0.0
11/09:30pm 23.3 24.5 20.6 85 1.8 SSW 15 24 8 13 1014.3 1014.3 0.0
11/09:00pm 23.2 25.4 20.5 85 1.8 SSW 9 17 5 9 1014.3 1014.3 0.0
11/08:30pm 23.1 23.9 20.6 86 1.6 SW 17 24 9 13 1013.8 1013.8 0.0
11/08:00pm 23.4 25.0 20.0 81 2.2 SW 11 17 6 9 1013.6 1013.6 0.0
11/07:30pm 23.7 25.1 19.6 78 2.6 SSW 11 19 6 10 1013.3 1013.3 0.0
11/07:00pm 24.4 25.0 19.5 74 3.1 SW 15 24 8 13 1012.9 1012.9 0.0
11/06:30pm 24.6 25.9 20.1 76 2.9 SW 13 22 7 12 1012.6 1012.6 0.0
11/06:00pm 24.7 25.0 20.4 77 2.8 SW 19 26 10 14 1012.2 1012.2 0.0

Latest Capital City Observations: Canberra | Sydney | Melbourne | Brisbane | Adelaide | Perth | Hobart | Darwin

Other Formats:

Comma delimited format used in spreadsheet applications
http://www.bom.gov.au/fwo/IDW60901/IDW60901.94605.axf

JavaScript Object Notation format (JSON) in row-major order
http://www.bom.gov.au/fwo/IDW60901/IDW60901.94605.json